Time;durP1;ratioP1;P1;durP2;ratioP2;P2;SDS_P1;SDS_P2;PMS_P1;PMS_P2;Temp;Humidity;BMP_temperature;BMP_pressure;BME280_temperature;BME280_humidity;BME280_pressure;Samples;Min_cycle;Max_cycle;Signal;HPM_P1;HPM_P2
2022/05/24 00:02:59;;;;;;;7.80;5.70;;;;;;;9.55;62.03;99625.35;130460;1267;107678;-83
2022/05/24 00:06:04;;;;;;;7.70;5.80;;;;;;;9.55;62.03;99625.29;130472;1268;108702;-82
2022/05/24 00:09:11;;;;;;;9.00;6.40;;;;;;;9.56;61.86;99620.76;130461;1267;108882;-83
2022/05/24 00:12:17;;;;;;;7.10;6.00;;;;;;;9.56;61.90;99625.45;130430;1267;108690;-82
2022/05/24 00:15:29;;;;;;;7.70;5.70;;;;;;;9.57;61.97;99615.67;130407;1268;108766;-82
2022/05/24 00:18:34;;;;;;;8.30;6.00;;;;;;;9.59;62.05;99615.14;130452;1268;108690;-82
2022/05/24 00:21:40;;;;;;;7.90;5.50;;;;;;;9.54;61.99;99618.55;130447;1268;108910;-82
2022/05/24 00:24:46;;;;;;;7.40;5.60;;;;;;;9.49;62.24;99618.31;130418;1267;108726;-82
2022/05/24 00:27:52;;;;;;;8.60;5.70;;;;;;;9.44;62.13;99618.13;130386;1268;108616;-82
2022/05/24 00:30:59;;;;;;;6.90;5.70;;;;;;;9.39;62.23;99616.31;130422;1268;108848;-82
2022/05/24 00:34:04;;;;;;;7.20;5.30;;;;;;;9.34;62.47;99616.70;130435;1268;108753;-82
2022/05/24 00:37:10;;;;;;;7.60;6.00;;;;;;;9.29;62.39;99619.04;130444;1267;108649;-82
2022/05/24 00:40:27;;;;;;;8.80;6.30;;;;;;;9.21;62.44;99616.15;130400;1268;108691;-82
2022/05/24 00:43:36;;;;;;;6.80;5.40;;;;;;;9.15;62.51;99613.02;130455;1267;109025;-82
2022/05/24 00:46:48;;;;;;;6.50;5.30;;;;;;;9.09;62.32;99616.31;130443;1268;108566;-80
2022/05/24 00:49:57;;;;;;;6.30;4.70;;;;;;;9.01;62.55;99614.23;130451;1267;108093;-80
2022/05/24 00:53:07;;;;;;;6.10;5.10;;;;;;;8.98;62.48;99616.74;130428;1268;108859;-78
2022/05/24 00:56:18;;;;;;;10.60;7.50;;;;;;;8.95;62.49;99620.85;130318;1267;108767;-79
2022/05/24 00:59:33;;;;;;;8.30;6.00;;;;;;;8.96;62.52;99627.07;129994;1267;482447;-78
2022/05/24 01:02:41;;;;;;;8.50;5.70;;;;;;;8.95;62.69;99626.20;130319;1268;108701;-80
2022/05/24 01:05:46;;;;;;;8.20;6.20;;;;;;;8.94;62.50;99625.09;130460;1267;108791;-80
2022/05/24 01:08:54;;;;;;;7.30;6.10;;;;;;;8.95;62.82;99620.94;130421;1267;108817;-80
2022/05/24 01:12:05;;;;;;;8.60;6.40;;;;;;;8.91;62.64;99618.70;130381;1267;108712;-79
2022/05/24 01:15:14;;;;;;;8.30;6.10;;;;;;;8.84;62.67;99618.61;130327;1267;108721;-80
2022/05/24 01:18:21;;;;;;;7.30;5.80;;;;;;;8.81;62.60;99610.49;130350;1267;108641;-80
2022/05/24 01:21:26;;;;;;;7.40;5.70;;;;;;;8.77;62.83;99609.13;130383;1268;108775;-81
2022/05/24 01:24:41;;;;;;;8.50;6.00;;;;;;;8.72;62.66;99610.20;130399;1267;108854;-81
2022/05/24 01:27:46;;;;;;;7.40;5.90;;;;;;;8.64;62.91;99607.23;130405;1267;108844;-80
2022/05/24 01:30:53;;;;;;;6.40;5.30;;;;;;;8.58;62.81;99607.80;130324;1268;108675;-79
2022/05/24 01:37:23;;;;;;;8.20;5.80;;;;;;;8.50;63.09;99604.98;130342;1267;108021;-77
2022/05/24 01:40:30;;;;;;;7.40;5.30;;;;;;;8.43;63.08;99601.20;130330;1267;108524;-77
2022/05/24 01:43:38;;;;;;;8.40;5.10;;;;;;;8.39;63.25;99605.66;130321;1268;108734;-78
2022/05/24 01:46:46;;;;;;;6.50;5.60;;;;;;;8.37;63.36;99593.13;130369;1267;108706;-78
2022/05/24 01:49:56;;;;;;;7.20;6.10;;;;;;;8.37;63.26;99598.60;130352;1267;108680;-79
2022/05/24 01:53:06;;;;;;;7.50;6.00;;;;;;;8.39;63.08;99594.52;130348;1268;108969;-79
2022/05/24 01:56:16;;;;;;;7.90;5.90;;;;;;;8.40;63.40;99590.65;130295;1268;108678;-79
2022/05/24 01:59:23;;;;;;;7.20;6.30;;;;;;;8.41;63.20;99586.10;130372;1268;108860;-78
2022/05/24 02:02:30;;;;;;;7.90;6.40;;;;;;;8.40;63.29;99580.55;130351;1268;108718;-78
2022/05/24 02:05:38;;;;;;;8.80;6.40;;;;;;;8.37;63.12;99578.36;130342;1267;108952;-78
2022/05/24 02:08:44;;;;;;;6.80;6.00;;;;;;;8.34;63.40;99575.13;130354;1268;108779;-80
2022/05/24 02:11:50;;;;;;;7.30;5.90;;;;;;;8.30;63.26;99573.74;130363;1268;107551;-79
2022/05/24 02:14:59;;;;;;;7.10;5.50;;;;;;;8.28;63.68;99567.45;130386;1268;107114;-82
2022/05/24 02:18:08;;;;;;;7.80;6.20;;;;;;;8.25;63.60;99566.48;130409;1268;108676;-76
2022/05/24 02:21:14;;;;;;;8.10;6.30;;;;;;;8.22;63.86;99567.79;130374;1267;108722;-77
2022/05/24 02:24:23;;;;;;;7.30;6.20;;;;;;;8.18;63.81;99565.97;130377;1267;108710;-78
2022/05/24 02:27:29;;;;;;;7.70;6.00;;;;;;;8.13;64.07;99564.45;130310;1267;108719;-78
2022/05/24 02:30:35;;;;;;;7.20;5.60;;;;;;;8.10;64.03;99556.44;130329;1268;108835;-77
2022/05/24 02:33:41;;;;;;;8.30;6.20;;;;;;;8.12;64.13;99554.50;130397;1268;108824;-76
2022/05/24 02:36:46;;;;;;;7.60;6.10;;;;;;;8.17;64.20;99547.59;130334;1268;108632;-79
2022/05/24 02:43:15;;;;;;;10.30;6.70;;;;;;;8.23;64.39;99543.27;130425;1268;108775;-79
2022/05/24 02:46:22;;;;;;;8.30;6.80;;;;;;;8.28;65.05;99538.40;130435;1268;108812;-78
2022/05/24 02:49:27;;;;;;;8.10;6.40;;;;;;;8.33;64.96;99537.84;130364;1267;109618;-75
2022/05/24 02:52:33;;;;;;;8.10;6.40;;;;;;;8.34;64.62;99536.18;130331;1268;108852;-76
2022/05/24 02:55:38;;;;;;;8.20;6.80;;;;;;;8.35;64.88;99529.51;130354;1267;108890;-80
2022/05/24 02:58:45;;;;;;;8.30;6.80;;;;;;;8.39;65.48;99529.23;130370;1268;108680;-76
2022/05/24 03:01:50;;;;;;;8.90;6.40;;;;;;;8.43;65.52;99526.70;130366;1267;108958;-77
2022/05/24 03:04:56;;;;;;;8.70;6.30;;;;;;;8.49;65.66;99524.73;130396;1268;109946;-76
2022/05/24 03:11:25;;;;;;;9.50;6.60;;;;;;;8.75;66.33;99525.09;130372;1268;108721;-75
2022/05/24 03:14:30;;;;;;;8.30;6.60;;;;;;;8.86;66.04;99522.52;130364;1268;108664;-78
2022/05/24 03:17:36;;;;;;;10.70;7.60;;;;;;;8.95;66.60;99519.60;130318;1268;109053;-76
2022/05/24 03:20:43;;;;;;;10.40;7.30;;;;;;;9.09;66.67;99515.49;130358;1268;108769;-76
2022/05/24 03:23:48;;;;;;;9.20;7.40;;;;;;;9.22;66.94;99515.85;130331;1267;108580;-77
2022/05/24 03:26:54;;;;;;;7.60;6.50;;;;;;;9.46;67.05;99515.70;130324;1267;106913;-76
2022/05/24 03:29:59;;;;;;;10.00;6.10;;;;;;;9.72;66.99;99516.60;130307;1268;108709;-76
2022/05/24 03:33:05;;;;;;;12.20;6.90;;;;;;;9.98;66.82;99514.84;130305;1267;108961;-76
2022/05/24 03:36:11;;;;;;;9.40;7.00;;;;;;;10.30;66.95;99515.15;130387;1267;108810;-77
2022/05/24 03:39:16;;;;;;;9.80;7.30;;;;;;;10.55;66.66;99516.30;130378;1267;108979;-77
2022/05/24 03:42:22;;;;;;;8.10;7.30;;;;;;;10.81;66.59;99514.45;130375;1267;108126;-77
2022/05/24 03:45:27;;;;;;;8.50;7.50;;;;;;;11.04;66.56;99515.34;130356;1268;108797;-76
2022/05/24 03:48:34;;;;;;;7.20;6.50;;;;;;;11.25;66.55;99518.55;130292;1267;108652;-76
2022/05/24 03:51:39;;;;;;;8.60;6.30;;;;;;;11.49;66.53;99514.69;130398;1268;108748;-77
2022/05/24 03:54:45;;;;;;;8.70;5.70;;;;;;;11.80;66.46;99515.71;130354;1268;108971;-77
2022/05/24 04:01:10;;;;;;;7.50;6.10;;;;;;;12.47;65.97;99510.20;130276;1268;108914;-77
2022/05/24 04:04:16;;;;;;;6.30;5.70;;;;;;;12.79;65.79;99509.42;130329;1267;108723;-77
2022/05/24 04:07:21;;;;;;;7.40;6.10;;;;;;;13.12;65.64;99507.76;130327;1267;109035;-76
2022/05/24 04:10:27;;;;;;;6.30;5.70;;;;;;;13.40;65.30;99511.13;130344;1268;107717;-76
2022/05/24 04:13:34;;;;;;;6.50;5.80;;;;;;;13.61;65.12;99514.64;130370;1268;108698;-76
2022/05/24 04:16:39;;;;;;;8.10;5.80;;;;;;;13.85;65.03;99512.39;130343;1268;108674;-76
2022/05/24 04:19:45;;;;;;;6.80;5.80;;;;;;;14.05;64.90;99516.11;130340;1268;108676;-77
2022/05/24 04:22:53;;;;;;;7.40;5.60;;;;;;;14.21;64.70;99512.65;130305;1267;108964;-74
2022/05/24 04:25:58;;;;;;;6.50;5.40;;;;;;;14.38;64.51;99514.30;130434;1267;108726;-75
2022/05/24 04:29:04;;;;;;;7.00;5.20;;;;;;;14.40;64.45;99510.05;130331;1268;108735;-74
2022/05/24 04:32:11;;;;;;;6.50;4.80;;;;;;;14.45;64.29;99517.06;130393;1268;108842;-74
2022/05/24 04:35:17;;;;;;;6.00;5.10;;;;;;;14.52;64.19;99526.89;130328;1268;108770;-74
2022/05/24 04:38:22;;;;;;;5.70;4.80;;;;;;;14.52;64.30;99531.23;130360;1267;108694;-75
2022/05/24 04:44:54;;;;;;;5.50;5.00;;;;;;;14.73;63.80;99525.89;130374;1267;108747;-75
2022/05/24 04:48:00;;;;;;;7.70;4.90;;;;;;;14.76;63.85;99523.56;130323;1267;108807;-73
2022/05/24 04:51:07;;;;;;;6.50;5.10;;;;;;;14.85;63.67;99514.05;130467;1268;108960;-75
2022/05/24 04:54:13;;;;;;;5.40;4.90;;;;;;;15.00;63.76;99510.98;130390;1268;108199;-75
2022/05/24 04:57:20;;;;;;;5.10;4.60;;;;;;;15.15;63.74;99514.77;130419;1267;108775;-75
2022/05/24 05:00:26;;;;;;;4.90;4.30;;;;;;;15.26;63.38;99517.24;130359;1267;108752;-74
2022/05/24 05:03:31;;;;;;;4.90;4.40;;;;;;;15.36;63.19;99521.73;130381;1268;107780;-76
2022/05/24 05:06:37;;;;;;;6.50;4.20;;;;;;;15.46;63.01;99516.97;130363;1267;108665;-75
2022/05/24 05:09:43;;;;;;;5.30;4.20;;;;;;;15.54;62.92;99522.83;130484;1267;108757;-74
2022/05/24 05:12:48;;;;;;;4.70;4.00;;;;;;;15.63;62.54;99519.00;130430;1267;108557;-74
2022/05/24 05:15:54;;;;;;;4.30;3.90;;;;;;;15.69;62.40;99521.54;130344;1267;108755;-74
2022/05/24 05:19:00;;;;;;;4.70;3.90;;;;;;;15.76;62.54;99517.19;130472;1268;109638;-75
2022/05/24 05:22:07;;;;;;;4.20;3.80;;;;;;;15.82;62.52;99512.05;130332;1268;108793;-75
2022/05/24 05:25:13;;;;;;;4.20;3.80;;;;;;;15.93;62.13;99510.30;130359;1268;108769;-76
2022/05/24 05:28:19;;;;;;;4.10;3.70;;;;;;;16.00;62.11;99504.91;130384;1267;108547;-74
2022/05/24 05:31:26;;;;;;;4.70;3.80;;;;;;;16.06;61.85;99506.11;130431;1268;108727;-75
2022/05/24 05:34:32;;;;;;;5.20;3.60;;;;;;;16.17;61.97;99506.77;130446;1267;108951;-75
2022/05/24 05:37:37;;;;;;;5.00;3.40;;;;;;;16.33;61.73;99502.49;130359;1268;108501;-75
2022/05/24 05:40:43;;;;;;;4.40;3.60;;;;;;;16.44;61.39;99497.91;130381;1268;108849;-75
2022/05/24 05:43:51;;;;;;;4.50;3.70;;;;;;;16.52;61.19;99499.70;130456;1267;108858;-75
2022/05/24 05:46:56;;;;;;;5.70;3.60;;;;;;;16.65;61.26;99502.76;130482;1267;108722;-75
2022/05/24 05:50:02;;;;;;;3.60;3.30;;;;;;;16.77;60.67;99504.92;130325;1268;108930;-75
2022/05/24 05:53:07;;;;;;;4.40;3.60;;;;;;;16.81;60.93;99504.79;130412;1268;108197;-75
2022/05/24 05:56:16;;;;;;;4.30;3.40;;;;;;;16.89;60.37;99507.31;130417;1268;108960;-74
2022/05/24 05:59:22;;;;;;;4.30;3.70;;;;;;;16.88;60.25;99512.67;130420;1267;108913;-74
2022/05/24 06:02:29;;;;;;;6.20;3.40;;;;;;;16.86;59.96;99516.79;130379;1267;108724;-73
2022/05/24 06:05:35;;;;;;;4.60;3.30;;;;;;;16.82;59.85;99506.52;130378;1267;108815;-73
2022/05/24 06:08:40;;;;;;;3.90;3.10;;;;;;;16.81;59.65;99503.89;130418;1268;108570;-74
2022/05/24 06:11:46;;;;;;;5.10;3.40;;;;;;;16.77;59.19;99492.73;130371;1268;108655;-74
2022/05/24 06:14:51;;;;;;;5.70;3.00;;;;;;;16.75;58.96;99495.86;130420;1268;108950;-74
2022/05/24 06:17:57;;;;;;;4.50;2.90;;;;;;;16.75;58.55;99490.09;130462;1266;108687;-76
2022/05/24 06:21:03;;;;;;;5.10;3.20;;;;;;;16.91;58.85;99492.34;130524;1268;108814;-75
2022/05/24 06:24:09;;;;;;;4.40;2.70;;;;;;;17.10;58.64;99494.60;130382;1268;108894;-75
2022/05/24 06:27:15;;;;;;;5.20;2.90;;;;;;;17.27;58.41;99496.20;130409;1268;107441;-74
2022/05/24 06:30:22;;;;;;;3.80;3.30;;;;;;;17.42;58.29;99491.69;130403;1268;107713;-74
2022/05/24 06:33:28;;;;;;;6.70;3.00;;;;;;;17.57;57.81;99492.05;130385;1266;108753;-74
2022/05/24 06:36:33;;;;;;;6.20;3.20;;;;;;;17.69;56.79;99490.11;130431;1267;108828;-74
2022/05/24 06:39:38;;;;;;;5.50;3.60;;;;;;;17.79;57.46;99488.55;130383;1268;109752;-76
2022/05/24 06:42:44;;;;;;;5.10;3.20;;;;;;;17.86;56.14;99491.95;130359;1268;108614;-75
2022/05/24 06:45:49;;;;;;;6.80;3.60;;;;;;;17.92;56.34;99492.09;130481;1268;109149;-76
2022/05/24 06:48:55;;;;;;;5.10;3.50;;;;;;;18.01;56.18;99493.71;130510;1267;108561;-75
2022/05/24 06:52:00;;;;;;;4.60;3.40;;;;;;;18.15;56.35;99491.80;130460;1266;108701;-74
2022/05/24 06:55:08;;;;;;;4.00;3.40;;;;;;;18.30;56.42;99495.26;130386;1268;107655;-73
2022/05/24 06:58:13;;;;;;;7.80;3.50;;;;;;;18.45;55.90;99491.35;130387;1267;108782;-75
2022/05/24 07:04:42;;;;;;;6.10;3.50;;;;;;;18.66;55.25;99481.28;130369;1268;108757;-75
2022/05/24 07:07:48;;;;;;;5.00;3.20;;;;;;;18.81;54.92;99481.45;130430;1267;108740;-76
2022/05/24 07:11:00;;;;;;;9.90;4.10;;;;;;;18.89;53.85;99487.79;130413;1268;108819;-77
2022/05/24 07:14:05;;;;;;;8.70;3.70;;;;;;;18.90;53.63;99493.23;130487;1267;108829;-75
2022/05/24 07:17:10;;;;;;;7.00;3.50;;;;;;;18.90;53.03;99492.10;130400;1268;108662;-76
2022/05/24 07:20:16;;;;;;;10.30;3.70;;;;;;;18.87;53.18;99482.38;130431;1268;108737;-77
2022/05/24 07:23:24;;;;;;;7.40;3.70;;;;;;;18.92;53.52;99482.48;130373;1268;108928;-76
2022/05/24 07:26:29;;;;;;;8.90;3.30;;;;;;;18.99;53.37;99483.92;130471;1268;108350;-76
2022/05/24 07:29:37;;;;;;;9.00;3.70;;;;;;;19.04;52.82;99487.19;130480;1267;108803;-75
2022/05/24 07:32:45;;;;;;;3.40;3.00;;;;;;;18.99;52.56;99477.71;130428;1267;108734;-76
2022/05/24 07:35:51;;;;;;;4.50;3.00;;;;;;;19.00;52.22;99472.97;130384;1268;108585;-76
2022/05/24 07:38:58;;;;;;;5.30;3.30;;;;;;;19.04;51.90;99468.93;130365;1266;108742;-76
2022/05/24 07:48:53;;;;;;;6.10;3.30;;;;;;;19.25;51.87;99468.85;130363;1268;109236;-75
2022/05/24 07:51:58;;;;;;;6.00;3.20;;;;;;;19.45;51.87;99458.33;130365;1268;108637;-75
2022/05/24 07:55:04;;;;;;;5.10;3.40;;;;;;;19.67;51.38;99462.05;130332;1266;108789;-75
2022/05/24 07:58:09;;;;;;;5.90;3.20;;;;;;;19.80;50.95;99472.19;130351;1268;108921;-75
2022/05/24 08:01:16;;;;;;;5.60;3.00;;;;;;;19.91;50.39;99474.67;130406;1268;108669;-76
2022/05/24 08:04:22;;;;;;;6.30;3.40;;;;;;;20.02;50.46;99471.24;130312;1266;108801;-75
2022/05/24 08:07:28;;;;;;;6.30;3.20;;;;;;;20.15;50.65;99463.70;130363;1268;109496;-74
2022/05/24 08:10:34;;;;;;;7.80;3.10;;;;;;;20.33;50.18;99468.67;130386;1268;108647;-75
2022/05/24 08:13:39;;;;;;;6.30;3.20;;;;;;;20.47;49.80;99467.08;130391;1267;108680;-75
2022/05/24 08:16:45;;;;;;;4.70;3.10;;;;;;;20.57;49.20;99470.45;130372;1268;108962;-75
2022/05/24 08:19:52;;;;;;;5.80;2.80;;;;;;;20.67;49.71;99470.42;130303;1267;107704;-75
2022/05/24 08:22:58;;;;;;;5.70;2.90;;;;;;;20.81;49.06;99471.84;130438;1268;108702;-76
2022/05/24 08:26:04;;;;;;;7.60;3.10;;;;;;;20.82;48.54;99467.64;130463;1268;108729;-75
2022/05/24 08:29:09;;;;;;;8.20;3.10;;;;;;;20.78;48.48;99476.17;130398;1268;108658;-76
2022/05/24 08:32:14;;;;;;;5.10;3.00;;;;;;;20.81;48.54;99475.70;130330;1268;108808;-75
2022/05/24 08:35:22;;;;;;;5.30;3.20;;;;;;;20.89;48.51;99482.42;130371;1268;107969;-75
2022/05/24 08:38:28;;;;;;;6.20;3.00;;;;;;;20.91;48.16;99475.58;130351;1268;108803;-75
2022/05/24 08:41:45;;;;;;;7.30;3.10;;;;;;;20.91;48.08;99470.33;130467;1268;108695;-75
2022/05/24 08:48:27;;;;;;;6.30;2.80;;;;;;;20.89;47.43;99471.96;130334;1268;107627;-75
2022/05/24 08:51:38;;;;;;;8.40;3.00;;;;;;;20.88;47.43;99471.45;130465;1267;108714;-75
2022/05/24 08:54:46;;;;;;;6.50;2.90;;;;;;;20.85;46.98;99469.17;130400;1268;108499;-76
2022/05/24 08:57:55;;;;;;;4.00;2.60;;;;;;;20.95;47.61;99461.88;130328;1268;108688;-75
2022/05/24 09:01:02;;;;;;;5.50;2.80;;;;;;;21.05;47.64;99460.18;130376;1268;108706;-75
2022/05/24 09:04:10;;;;;;;6.50;3.10;;;;;;;21.12;47.24;99460.11;130402;1268;108688;-75
2022/05/24 09:07:24;;;;;;;3.60;2.60;;;;;;;21.16;47.08;99466.20;130479;1268;108784;-76
2022/05/24 09:10:39;;;;;;;4.50;2.70;;;;;;;21.20;46.85;99466.10;130477;1268;108915;-75
2022/05/24 09:14:10;;;;;;;4.20;2.90;;;;;;;21.16;46.34;99464.25;130431;1268;108752;-74
2022/05/24 09:17:28;;;;;;;8.20;3.00;;;;;;;21.05;46.36;99462.36;130445;1268;108726;-75
2022/05/24 09:20:38;;;;;;;5.00;2.80;;;;;;;21.03;46.40;99463.94;130470;1268;108979;-75
2022/05/24 09:23:49;;;;;;;5.00;2.70;;;;;;;21.03;46.59;99462.25;130485;1268;108925;-75
2022/05/24 09:27:03;;;;;;;;;;;;;;;21.01;46.49;99462.61;130476;1268;108939;-75
2022/05/24 09:30:21;;;;;;;3.90;2.50;;;;;;;21.00;46.34;99465.30;130481;1268;108718;-75
2022/05/24 09:33:30;;;;;;;5.00;2.60;;;;;;;20.96;45.91;99463.22;130447;1268;108588;-75
2022/05/24 09:36:39;;;;;;;5.50;2.70;;;;;;;20.93;46.16;99460.62;130424;1268;108843;-74
2022/05/24 09:39:57;;;;;;;5.00;2.80;;;;;;;20.96;46.21;99464.14;130481;1267;108930;-75
2022/05/24 09:43:18;;;;;;;5.10;3.20;;;;;;;21.01;45.99;99460.16;130517;1268;108704;-74
2022/05/24 09:46:27;;;;;;;6.50;2.90;;;;;;;21.13;46.00;99461.73;130548;1268;108618;-74
2022/05/24 09:49:35;;;;;;;6.10;2.60;;;;;;;21.26;45.92;99463.83;130502;1268;107661;-76
2022/05/24 09:52:41;;;;;;;5.90;2.90;;;;;;;21.39;45.43;99460.88;130421;1268;108849;-75
2022/05/24 09:55:50;;;;;;;4.50;2.60;;;;;;;21.51;45.13;99463.23;130445;1268;108809;-75
2022/05/24 09:58:58;;;;;;;4.60;2.60;;;;;;;21.67;45.06;99458.14;130381;1267;109489;-76
2022/05/24 10:02:24;;;;;;;3.50;2.60;;;;;;;21.79;44.76;99457.46;130470;1268;108682;-75
2022/05/24 10:05:30;;;;;;;4.90;2.70;;;;;;;21.89;44.65;99453.81;130510;1268;108953;-75
2022/05/24 10:08:40;;;;;;;4.70;2.80;;;;;;;21.95;44.77;99454.23;130492;1268;108744;-75
2022/05/24 10:11:54;;;;;;;6.30;2.70;;;;;;;21.99;44.12;99452.83;130467;1268;108757;-76
2022/05/24 10:15:10;;;;;;;4.70;2.60;;;;;;;22.01;44.50;99450.05;130491;1268;108798;-75
2022/05/24 10:18:37;;;;;;;3.40;2.40;;;;;;;22.08;44.18;99442.77;130468;1268;108827;-75
2022/05/24 10:21:49;;;;;;;4.10;2.60;;;;;;;22.21;44.33;99443.06;130488;1267;108669;-76
2022/05/24 10:25:03;;;;;;;6.90;2.70;;;;;;;22.33;43.92;99445.73;130491;1268;108673;-75
2022/05/24 10:28:20;;;;;;;6.90;2.70;;;;;;;22.29;43.60;99449.20;130487;1268;108984;-76
2022/05/24 10:31:40;;;;;;;5.20;2.70;;;;;;;22.24;43.66;99444.70;130532;1266;107736;-75
2022/05/24 10:38:36;;;;;;;5.20;2.70;;;;;;;22.04;43.77;99443.75;130489;1268;108727;-75
2022/05/24 10:41:52;;;;;;;3.40;2.50;;;;;;;21.99;43.78;99443.00;130489;1265;108710;-75
2022/05/24 10:45:03;;;;;;;3.40;2.50;;;;;;;21.98;43.90;99447.13;130526;1268;108728;-75
2022/05/24 10:48:12;;;;;;;5.40;2.80;;;;;;;21.95;43.77;99448.27;130455;1268;108938;-76
2022/05/24 10:51:25;;;;;;;4.50;2.40;;;;;;;21.88;43.85;99448.27;130475;1268;108718;-75
2022/05/24 10:54:41;;;;;;;5.40;2.60;;;;;;;21.75;43.41;99448.23;130445;1268;108662;-75
2022/05/24 10:57:54;;;;;;;4.80;2.50;;;;;;;21.58;43.62;99442.95;130450;1268;108935;-75
2022/05/24 11:01:08;;;;;;;9.50;3.30;;;;;;;21.46;43.92;99445.99;130488;1268;107814;-75
2022/05/24 11:04:22;;;;;;;4.20;2.40;;;;;;;21.32;43.82;99453.37;130474;1268;108679;-75
2022/05/24 11:07:29;;;;;;;3.20;2.40;;;;;;;21.19;44.51;99452.96;130411;1267;108553;-75
2022/05/24 11:10:40;;;;;;;4.50;2.50;;;;;;;21.10;44.68;99451.50;130407;1268;108886;-74
2022/05/24 11:13:52;;;;;;;4.90;2.30;;;;;;;21.00;44.38;99454.34;130401;1268;108802;-74
2022/05/24 11:16:59;;;;;;;5.20;2.40;;;;;;;20.86;44.48;99455.63;130338;1268;108640;-74
2022/05/24 11:20:07;;;;;;;4.70;2.30;;;;;;;20.70;44.71;99458.78;130514;1268;108926;-74
2022/05/24 11:23:17;;;;;;;5.10;2.40;;;;;;;20.59;45.02;99456.35;130486;1268;108441;-77
2022/05/24 11:26:27;;;;;;;7.50;2.90;;;;;;;20.47;45.21;99459.23;130341;1268;108791;-77
2022/05/24 11:29:43;;;;;;;3.80;2.40;;;;;;;20.33;45.42;99469.04;130502;1268;108828;-76
2022/05/24 11:32:53;;;;;;;7.30;2.50;;;;;;;20.23;45.86;99473.86;130479;1268;108630;-76
2022/05/24 11:36:27;;;;;;;2.90;2.30;;;;;;;20.17;46.11;99473.95;130476;1268;108598;-76
2022/05/24 11:39:37;;;;;;;4.50;2.60;;;;;;;20.17;46.61;99476.17;130460;1268;108626;-75
2022/05/24 11:42:48;;;;;;;2.90;2.30;;;;;;;20.23;46.76;99478.20;130466;1268;108605;-74
2022/05/24 11:46:00;;;;;;;4.00;2.40;;;;;;;20.36;47.03;99476.70;130505;1268;108700;-75
2022/05/24 11:49:09;;;;;;;3.30;2.40;;;;;;;20.51;47.37;99473.30;130452;1268;108695;-76
2022/05/24 11:52:45;;;;;;;3.70;2.20;;;;;;;20.60;47.12;99474.60;130484;1268;108833;-76
2022/05/24 11:56:13;;;;;;;6.00;2.20;;;;;;;20.62;47.16;99481.64;130476;1267;108811;-76
2022/05/24 11:59:52;;;;;;;4.60;2.50;;;;;;;20.64;47.26;99479.79;130496;1267;108917;-76
2022/05/24 12:10:04;;;;;;;4.30;2.40;;;;;;;20.40;47.09;99480.53;130370;1268;108823;-75
2022/05/24 12:13:38;;;;;;;4.30;2.10;;;;;;;20.30;47.16;99478.46;130377;1269;108756;-75
2022/05/24 12:16:48;;;;;;;3.80;2.30;;;;;;;20.13;47.17;99474.02;130452;1268;108622;-76
2022/05/24 12:19:56;;;;;;;3.50;2.60;;;;;;;19.94;47.63;99480.28;130408;1266;108718;-74
2022/05/24 12:23:22;;;;;;;5.60;2.00;;;;;;;19.80;47.73;99479.23;130494;1267;108713;-75
2022/05/24 12:27:04;;;;;;;3.70;2.40;;;;;;;19.67;47.87;99475.20;130461;1268;108758;-75
2022/05/24 12:30:40;;;;;;;3.80;2.50;;;;;;;19.52;47.89;99470.09;130509;1268;106825;-76
2022/05/24 12:33:50;;;;;;;4.60;2.30;;;;;;;19.37;48.09;99475.73;130407;1268;108771;-77
2022/05/24 12:36:56;;;;;;;7.50;2.40;;;;;;;19.30;48.11;99479.95;130545;1268;108716;-76
2022/05/24 12:40:11;;;;;;;3.40;2.40;;;;;;;19.21;48.39;99480.26;130480;1268;108786;-77
2022/05/24 12:43:19;;;;;;;2.80;2.30;;;;;;;19.12;48.58;99474.61;130378;1268;109083;-77
2022/05/24 12:46:28;;;;;;;5.20;2.40;;;;;;;19.05;48.58;99470.66;130464;1268;108802;-75
2022/05/24 12:49:36;;;;;;;2.80;2.20;;;;;;;19.02;48.94;99476.94;130373;1268;106873;-75
2022/05/24 12:52:43;;;;;;;4.30;2.30;;;;;;;19.03;49.28;99475.71;130652;1268;108987;-77
2022/05/24 12:55:58;;;;;;;3.80;2.20;;;;;;;19.09;49.22;99480.31;130544;1268;108123;-77
2022/05/24 12:59:12;;;;;;;3.50;2.30;;;;;;;19.14;49.54;99483.52;130255;1268;322763;-78
2022/05/24 13:02:30;;;;;;;3.80;2.40;;;;;;;19.20;49.77;99489.10;130472;1268;108669;-78
2022/05/24 13:05:41;;;;;;;10.20;2.60;;;;;;;19.25;50.23;99488.38;130418;1268;108695;-76
2022/05/24 13:08:46;;;;;;;7.20;2.50;;;;;;;19.30;50.82;99487.22;130373;1268;108900;-78
2022/05/24 13:11:55;;;;;;;4.00;2.70;;;;;;;19.34;51.19;99485.96;130440;1268;108639;-78
2022/05/24 13:15:03;;;;;;;4.30;2.60;;;;;;;19.34;51.42;99478.64;130530;1268;108775;-77
2022/05/24 13:18:13;;;;;;;4.10;3.20;;;;;;;19.34;51.65;99475.56;130487;1268;108601;-76
2022/05/24 13:21:24;;;;;;;4.90;2.90;;;;;;;19.30;51.84;99476.23;130479;1268;108704;-75
2022/05/24 13:24:33;;;;;;;3.80;3.30;;;;;;;19.27;51.97;99480.73;130489;1268;108548;-76
2022/05/24 13:27:57;;;;;;;3.20;2.80;;;;;;;19.20;52.37;99484.02;130370;1268;108654;-76
2022/05/24 13:34:33;;;;;;;5.50;3.00;;;;;;;19.10;52.99;99488.90;130279;1268;108769;-77
2022/05/24 13:37:55;;;;;;;4.80;3.00;;;;;;;19.04;53.50;99489.69;130394;1268;108621;-77
2022/05/24 13:41:01;;;;;;;4.40;3.00;;;;;;;18.97;53.73;99487.98;130388;1268;107811;-76
2022/05/24 13:44:19;;;;;;;3.90;3.00;;;;;;;18.92;53.98;99483.77;130382;1268;108565;-76
2022/05/24 13:47:35;;;;;;;5.40;2.90;;;;;;;18.83;54.51;99482.23;130351;1268;108944;-76
2022/05/24 13:50:42;;;;;;;3.20;2.80;;;;;;;18.76;54.99;99483.17;130393;1268;107690;-75
2022/05/24 13:53:48;;;;;;;4.50;2.90;;;;;;;18.67;55.16;99480.86;130369;1268;108858;-79
2022/05/24 13:56:54;;;;;;;5.60;3.50;;;;;;;18.59;55.33;99477.70;130438;1268;108659;-77
2022/05/24 14:00:06;;;;;;;6.00;4.00;;;;;;;18.52;55.28;99475.83;130444;1268;108750;-74
2022/05/24 14:03:45;;;;;;;5.80;4.00;;;;;;;18.46;55.55;99477.05;130113;1271;108927;-76
2022/05/24 14:06:53;;;;;;;6.50;4.60;;;;;;;18.40;55.92;99480.60;130164;1271;108885;-77
2022/05/24 14:09:59;;;;;;;4.90;4.00;;;;;;;18.36;56.14;99484.35;130136;1271;108950;-77
2022/05/24 14:13:07;;;;;;;4.20;3.80;;;;;;;18.33;56.35;99487.13;130173;1271;108593;-77
2022/05/24 14:16:15;;;;;;;4.70;4.00;;;;;;;18.33;56.79;99484.59;130208;1271;108722;-78
2022/05/24 14:19:23;;;;;;;4.60;4.10;;;;;;;18.35;57.05;99484.55;130227;1269;108771;-77
2022/05/24 14:22:29;;;;;;;4.40;3.90;;;;;;;18.39;57.06;99483.86;130182;1271;108621;-77
2022/05/24 14:25:34;;;;;;;4.50;4.00;;;;;;;18.41;57.12;99477.18;130150;1271;108857;-75
2022/05/24 14:28:40;;;;;;;5.10;3.80;;;;;;;18.42;57.26;99477.02;130172;1271;109716;-76
2022/05/24 14:31:46;;;;;;;4.10;3.70;;;;;;;18.42;57.35;99477.84;130114;1271;108860;-76
2022/05/24 14:34:51;;;;;;;5.80;4.70;;;;;;;18.39;57.44;99471.27;130250;1268;108690;-75
2022/05/24 14:37:57;;;;;;;9.50;6.40;;;;;;;18.32;57.65;99472.58;130383;1268;107241;-76
2022/05/24 14:44:25;;;;;;;20.00;12.90;;;;;;;18.18;58.08;99467.45;130359;1268;108720;-76
2022/05/24 14:47:31;;;;;;;23.10;15.00;;;;;;;18.13;58.26;99464.58;130327;1268;108584;-75
2022/05/24 14:50:38;;;;;;;19.90;13.40;;;;;;;18.08;58.17;99466.58;130391;1268;108682;-75
2022/05/24 14:53:44;;;;;;;13.90;10.40;;;;;;;18.04;58.20;99468.07;130371;1268;108924;-77
2022/05/24 14:56:49;;;;;;;9.40;6.70;;;;;;;17.99;58.26;99462.91;130354;1268;108932;-77
2022/05/24 14:59:55;;;;;;;6.20;5.50;;;;;;;17.94;58.28;99454.98;130349;1267;108871;-76
2022/05/24 15:03:00;;;;;;;9.30;6.50;;;;;;;17.90;58.66;99454.08;130396;1268;108990;-74
2022/05/24 15:06:06;;;;;;;9.30;6.30;;;;;;;17.84;58.47;99454.14;130359;1268;108771;-75
2022/05/24 15:15:59;;;;;;;11.70;7.00;;;;;;;17.83;58.70;99446.17;130348;1268;108890;-73
2022/05/24 15:19:05;;;;;;;10.20;7.10;;;;;;;17.86;58.55;99445.70;130418;1268;108521;-74
2022/05/24 15:22:11;;;;;;;9.30;6.60;;;;;;;17.90;58.57;99444.80;130469;1268;108678;-74
2022/05/24 15:25:21;;;;;;;6.60;5.10;;;;;;;17.93;58.57;99442.41;130429;1268;108649;-74
2022/05/24 15:28:31;;;;;;;4.30;3.80;;;;;;;17.95;58.56;99442.85;130376;1267;108703;-76